sensor_id;sensor_type;location;lat;lon;timestamp;P1;durP1;ratioP1;P2;durP2;ratioP2
21589;SDS011;10957;50.968;6.828;2023-04-19T00:03:35;2.20;;;2.10;;
21589;SDS011;10957;50.968;6.828;2023-04-19T00:08:36;2.50;;;2.40;;
21589;SDS011;10957;50.968;6.828;2023-04-19T00:13:38;2.97;;;2.70;;
21589;SDS011;10957;50.968;6.828;2023-04-19T00:18:39;2.60;;;2.50;;
21589;SDS011;10957;50.968;6.828;2023-04-19T00:23:42;2.90;;;2.70;;
21589;SDS011;10957;50.968;6.828;2023-04-19T00:28:44;2.80;;;2.70;;
21589;SDS011;10957;50.968;6.828;2023-04-19T00:33:45;3.38;;;3.20;;
21589;SDS011;10957;50.968;6.828;2023-04-19T00:38:47;3.65;;;3.45;;
21589;SDS011;10957;50.968;6.828;2023-04-19T00:43:48;3.25;;;3.10;;
21589;SDS011;10957;50.968;6.828;2023-04-19T00:48:49;2.75;;;2.65;;
21589;SDS011;10957;50.968;6.828;2023-04-19T00:53:51;2.80;;;2.70;;
21589;SDS011;10957;50.968;6.828;2023-04-19T00:58:53;3.50;;;3.20;;
21589;SDS011;10957;50.968;6.828;2023-04-19T01:04:00;3.40;;;3.25;;
21589;SDS011;10957;50.968;6.828;2023-04-19T01:10:39;3.60;;;3.40;;
21589;SDS011;10957;50.968;6.828;2023-04-19T01:15:42;3.08;;;2.97;;
21589;SDS011;10957;50.968;6.828;2023-04-19T01:20:44;2.90;;;2.80;;
21589;SDS011;10957;50.968;6.828;2023-04-19T01:25:45;3.63;;;3.42;;
21589;SDS011;10957;50.968;6.828;2023-04-19T01:30:47;3.28;;;3.17;;
21589;SDS011;10957;50.968;6.828;2023-04-19T01:35:50;4.13;;;3.92;;
21589;SDS011;10957;50.968;6.828;2023-04-19T01:40:52;3.15;;;2.95;;
21589;SDS011;10957;50.968;6.828;2023-04-19T01:45:59;3.42;;;3.33;;
21589;SDS011;10957;50.968;6.828;2023-04-19T01:51:04;2.95;;;2.85;;
21589;SDS011;10957;50.968;6.828;2023-04-19T01:56:07;2.63;;;2.53;;
21589;SDS011;10957;50.968;6.828;2023-04-19T02:01:11;3.03;;;2.92;;
21589;SDS011;10957;50.968;6.828;2023-04-19T02:06:13;2.58;;;2.47;;
21589;SDS011;10957;50.968;6.828;2023-04-19T02:11:14;3.70;;;3.42;;
21589;SDS011;10957;50.968;6.828;2023-04-19T02:16:16;3.30;;;3.10;;
21589;SDS011;10957;50.968;6.828;2023-04-19T02:21:17;2.50;;;2.40;;
21589;SDS011;10957;50.968;6.828;2023-04-19T02:26:18;3.00;;;2.90;;
21589;SDS011;10957;50.968;6.828;2023-04-19T02:31:20;3.83;;;3.63;;
21589;SDS011;10957;50.968;6.828;2023-04-19T02:36:21;3.65;;;3.45;;
21589;SDS011;10957;50.968;6.828;2023-04-19T02:41:22;2.28;;;2.17;;
21589;SDS011;10957;50.968;6.828;2023-04-19T02:46:23;2.92;;;2.83;;
21589;SDS011;10957;50.968;6.828;2023-04-19T02:51:25;3.22;;;2.58;;
21589;SDS011;10957;50.968;6.828;2023-04-19T02:56:26;2.90;;;2.80;;
21589;SDS011;10957;50.968;6.828;2023-04-19T03:01:28;2.75;;;2.65;;
21589;SDS011;10957;50.968;6.828;2023-04-19T03:06:30;2.78;;;2.67;;
21589;SDS011;10957;50.968;6.828;2023-04-19T03:11:32;2.65;;;2.55;;
21589;SDS011;10957;50.968;6.828;2023-04-19T03:16:33;2.97;;;2.78;;
21589;SDS011;10957;50.968;6.828;2023-04-19T03:21:35;3.42;;;3.17;;
21589;SDS011;10957;50.968;6.828;2023-04-19T03:26:37;3.33;;;3.13;;
21589;SDS011;10957;50.968;6.828;2023-04-19T03:31:39;3.50;;;3.30;;
21589;SDS011;10957;50.968;6.828;2023-04-19T03:36:42;3.70;;;3.50;;
21589;SDS011;10957;50.968;6.828;2023-04-19T03:41:43;3.42;;;3.17;;
21589;SDS011;10957;50.968;6.828;2023-04-19T03:46:58;2.70;;;2.60;;
21589;SDS011;10957;50.968;6.828;2023-04-19T03:52:03;3.58;;;3.35;;
21589;SDS011;10957;50.968;6.828;2023-04-19T03:57:05;3.00;;;2.90;;
21589;SDS011;10957;50.968;6.828;2023-04-19T04:02:09;2.85;;;2.75;;
21589;SDS011;10957;50.968;6.828;2023-04-19T04:07:11;2.33;;;2.22;;
21589;SDS011;10957;50.968;6.828;2023-04-19T04:12:13;3.15;;;2.95;;
21589;SDS011;10957;50.968;6.828;2023-04-19T04:17:15;4.28;;;3.90;;
21589;SDS011;10957;50.968;6.828;2023-04-19T04:22:17;2.80;;;2.70;;
21589;SDS011;10957;50.968;6.828;2023-04-19T04:27:18;2.45;;;2.35;;
21589;SDS011;10957;50.968;6.828;2023-04-19T04:32:23;3.13;;;2.95;;
21589;SDS011;10957;50.968;6.828;2023-04-19T04:37:28;2.63;;;2.53;;
21589;SDS011;10957;50.968;6.828;2023-04-19T04:42:33;3.08;;;2.88;;
21589;SDS011;10957;50.968;6.828;2023-04-19T04:47:35;2.58;;;2.47;;
21589;SDS011;10957;50.968;6.828;2023-04-19T04:52:39;3.13;;;2.97;;
21589;SDS011;10957;50.968;6.828;2023-04-19T04:57:47;2.60;;;2.50;;
21589;SDS011;10957;50.968;6.828;2023-04-19T05:03:01;2.85;;;2.75;;
21589;SDS011;10957;50.968;6.828;2023-04-19T05:08:04;2.50;;;2.40;;
21589;SDS011;10957;50.968;6.828;2023-04-19T05:13:06;2.50;;;2.40;;
21589;SDS011;10957;50.968;6.828;2023-04-19T05:18:07;3.00;;;2.90;;
21589;SDS011;10957;50.968;6.828;2023-04-19T05:23:09;3.15;;;2.97;;
21589;SDS011;10957;50.968;6.828;2023-04-19T05:28:11;2.50;;;2.40;;
21589;SDS011;10957;50.968;6.828;2023-04-19T05:33:26;2.40;;;2.30;;
21589;SDS011;10957;50.968;6.828;2023-04-19T05:38:30;2.55;;;2.45;;
21589;SDS011;10957;50.968;6.828;2023-04-19T05:43:35;2.50;;;2.40;;
21589;SDS011;10957;50.968;6.828;2023-04-19T05:48:37;3.38;;;3.17;;
21589;SDS011;10957;50.968;6.828;2023-04-19T05:54:14;2.45;;;2.35;;
21589;SDS011;10957;50.968;6.828;2023-04-19T05:59:19;2.50;;;2.40;;
21589;SDS011;10957;50.968;6.828;2023-04-19T06:04:20;2.75;;;2.65;;
21589;SDS011;10957;50.968;6.828;2023-04-19T06:09:22;2.28;;;2.17;;
21589;SDS011;10957;50.968;6.828;2023-04-19T06:14:25;2.60;;;2.50;;
21589;SDS011;10957;50.968;6.828;2023-04-19T06:19:28;2.75;;;2.65;;
21589;SDS011;10957;50.968;6.828;2023-04-19T06:24:29;2.90;;;2.80;;
21589;SDS011;10957;50.968;6.828;2023-04-19T06:29:30;3.15;;;2.85;;
21589;SDS011;10957;50.968;6.828;2023-04-19T06:34:32;2.63;;;2.53;;
21589;SDS011;10957;50.968;6.828;2023-04-19T06:39:33;3.45;;;3.25;;
21589;SDS011;10957;50.968;6.828;2023-04-19T06:44:34;3.03;;;2.85;;
21589;SDS011;10957;50.968;6.828;2023-04-19T06:49:35;2.80;;;2.70;;
21589;SDS011;10957;50.968;6.828;2023-04-19T06:54:36;2.50;;;2.40;;
21589;SDS011;10957;50.968;6.828;2023-04-19T06:59:38;2.83;;;2.72;;
21589;SDS011;10957;50.968;6.828;2023-04-19T07:04:41;2.80;;;2.70;;
21589;SDS011;10957;50.968;6.828;2023-04-19T07:09:43;2.70;;;2.60;;
21589;SDS011;10957;50.968;6.828;2023-04-19T07:14:44;2.67;;;2.58;;
21589;SDS011;10957;50.968;6.828;2023-04-19T07:19:46;3.00;;;2.90;;
21589;SDS011;10957;50.968;6.828;2023-04-19T07:24:48;3.10;;;3.00;;
21589;SDS011;10957;50.968;6.828;2023-04-19T07:29:51;2.78;;;2.67;;
21589;SDS011;10957;50.968;6.828;2023-04-19T07:34:53;2.60;;;2.50;;
21589;SDS011;10957;50.968;6.828;2023-04-19T07:39:54;2.50;;;2.40;;
21589;SDS011;10957;50.968;6.828;2023-04-19T07:44:55;2.70;;;2.60;;
21589;SDS011;10957;50.968;6.828;2023-04-19T07:49:57;2.85;;;2.75;;
21589;SDS011;10957;50.968;6.828;2023-04-19T07:54:58;3.38;;;3.13;;
21589;SDS011;10957;50.968;6.828;2023-04-19T07:59:59;2.92;;;2.72;;
21589;SDS011;10957;50.968;6.828;2023-04-19T08:05:01;3.58;;;3.38;;
21589;SDS011;10957;50.968;6.828;2023-04-19T08:10:04;3.55;;;3.35;;
21589;SDS011;10957;50.968;6.828;2023-04-19T08:15:07;2.80;;;2.70;;
21589;SDS011;10957;50.968;6.828;2023-04-19T08:20:08;3.10;;;3.00;;
21589;SDS011;10957;50.968;6.828;2023-04-19T08:25:11;3.83;;;3.53;;
21589;SDS011;10957;50.968;6.828;2023-04-19T08:30:13;3.08;;;2.97;;
21589;SDS011;10957;50.968;6.828;2023-04-19T08:35:14;3.20;;;3.10;;
21589;SDS011;10957;50.968;6.828;2023-04-19T08:40:16;3.83;;;3.63;;
21589;SDS011;10957;50.968;6.828;2023-04-19T08:45:18;3.50;;;3.30;;
21589;SDS011;10957;50.968;6.828;2023-04-19T08:50:20;3.40;;;3.30;;
21589;SDS011;10957;50.968;6.828;2023-04-19T08:55:22;3.78;;;3.58;;
21589;SDS011;10957;50.968;6.828;2023-04-19T09:00:24;3.60;;;3.40;;
21589;SDS011;10957;50.968;6.828;2023-04-19T09:05:25;3.97;;;3.75;;
21589;SDS011;10957;50.968;6.828;2023-04-19T09:10:27;5.00;;;3.92;;
21589;SDS011;10957;50.968;6.828;2023-04-19T09:15:38;3.40;;;3.30;;
21589;SDS011;10957;50.968;6.828;2023-04-19T09:20:42;4.00;;;3.80;;
21589;SDS011;10957;50.968;6.828;2023-04-19T09:25:54;3.50;;;3.40;;
21589;SDS011;10957;50.968;6.828;2023-04-19T09:30:57;3.67;;;3.47;;
21589;SDS011;10957;50.968;6.828;2023-04-19T09:36:10;3.42;;;3.33;;
21589;SDS011;10957;50.968;6.828;2023-04-19T09:41:26;3.00;;;2.90;;
21589;SDS011;10957;50.968;6.828;2023-04-19T09:46:37;3.05;;;2.95;;
21589;SDS011;10957;50.968;6.828;2023-04-19T09:51:41;3.72;;;3.53;;
21589;SDS011;10957;50.968;6.828;2023-04-19T09:56:43;3.30;;;3.20;;
21589;SDS011;10957;50.968;6.828;2023-04-19T10:01:53;3.42;;;3.25;;
21589;SDS011;10957;50.968;6.828;2023-04-19T10:06:59;4.20;;;3.83;;
21589;SDS011;10957;50.968;6.828;2023-04-19T10:12:01;3.00;;;2.90;;
21589;SDS011;10957;50.968;6.828;2023-04-19T10:17:09;2.97;;;2.88;;
21589;SDS011;10957;50.968;6.828;2023-04-19T10:22:21;4.03;;;3.83;;
21589;SDS011;10957;50.968;6.828;2023-04-19T10:27:23;3.15;;;3.05;;
21589;SDS011;10957;50.968;6.828;2023-04-19T10:32:41;3.42;;;3.22;;
21589;SDS011;10957;50.968;6.828;2023-04-19T11:04:17;3.15;;;3.05;;
21589;SDS011;10957;50.968;6.828;2023-04-19T11:09:32;3.10;;;3.00;;
21589;SDS011;10957;50.968;6.828;2023-04-19T11:14:36;3.78;;;3.58;;
21589;SDS011;10957;50.968;6.828;2023-04-19T11:19:42;3.00;;;2.90;;
21589;SDS011;10957;50.968;6.828;2023-04-19T11:24:53;3.60;;;3.40;;
21589;SDS011;10957;50.968;6.828;2023-04-19T11:30:00;3.30;;;3.20;;
21589;SDS011;10957;50.968;6.828;2023-04-19T11:35:06;17.95;;;4.15;;
21589;SDS011;10957;50.968;6.828;2023-04-19T11:40:12;3.20;;;3.10;;
21589;SDS011;10957;50.968;6.828;2023-04-19T11:45:38;3.20;;;3.10;;
21589;SDS011;10957;50.968;6.828;2023-04-19T11:55:45;3.20;;;3.10;;
21589;SDS011;10957;50.968;6.828;2023-04-19T12:00:48;3.42;;;3.33;;
21589;SDS011;10957;50.968;6.828;2023-04-19T12:05:53;3.90;;;3.70;;
21589;SDS011;10957;50.968;6.828;2023-04-19T12:10:59;3.30;;;3.20;;
21589;SDS011;10957;50.968;6.828;2023-04-19T12:16:01;4.30;;;4.10;;
21589;SDS011;10957;50.968;6.828;2023-04-19T12:21:03;3.30;;;3.20;;
21589;SDS011;10957;50.968;6.828;2023-04-19T12:26:06;3.53;;;3.33;;
21589;SDS011;10957;50.968;6.828;2023-04-19T12:31:08;4.88;;;4.55;;
21589;SDS011;10957;50.968;6.828;2023-04-19T12:36:09;3.55;;;3.35;;
21589;SDS011;10957;50.968;6.828;2023-04-19T12:41:10;3.30;;;3.20;;
21589;SDS011;10957;50.968;6.828;2023-04-19T12:46:12;3.80;;;3.60;;
21589;SDS011;10957;50.968;6.828;2023-04-19T12:51:13;3.30;;;3.20;;
21589;SDS011;10957;50.968;6.828;2023-04-19T12:56:16;3.53;;;3.33;;
21589;SDS011;10957;50.968;6.828;2023-04-19T13:01:18;3.13;;;3.03;;
21589;SDS011;10957;50.968;6.828;2023-04-19T13:06:20;3.50;;;3.40;;
21589;SDS011;10957;50.968;6.828;2023-04-19T13:11:21;3.60;;;3.40;;
21589;SDS011;10957;50.968;6.828;2023-04-19T13:16:22;3.83;;;3.72;;
21589;SDS011;10957;50.968;6.828;2023-04-19T13:21:24;3.50;;;3.40;;
21589;SDS011;10957;50.968;6.828;2023-04-19T13:26:27;3.78;;;3.58;;
21589;SDS011;10957;50.968;6.828;2023-04-19T13:31:28;3.97;;;3.50;;
21589;SDS011;10957;50.968;6.828;2023-04-19T13:36:30;3.30;;;3.20;;
21589;SDS011;10957;50.968;6.828;2023-04-19T13:41:31;3.30;;;3.20;;
21589;SDS011;10957;50.968;6.828;2023-04-19T13:46:33;3.97;;;3.78;;
21589;SDS011;10957;50.968;6.828;2023-04-19T13:51:34;4.00;;;3.80;;
21589;SDS011;10957;50.968;6.828;2023-04-19T13:56:35;3.45;;;3.30;;
21589;SDS011;10957;50.968;6.828;2023-04-19T14:01:36;3.20;;;3.10;;
21589;SDS011;10957;50.968;6.828;2023-04-19T14:06:38;3.30;;;3.20;;
21589;SDS011;10957;50.968;6.828;2023-04-19T14:11:39;3.10;;;3.00;;
21589;SDS011;10957;50.968;6.828;2023-04-19T14:16:41;3.70;;;3.50;;
21589;SDS011;10957;50.968;6.828;2023-04-19T14:21:43;4.05;;;3.85;;
21589;SDS011;10957;50.968;6.828;2023-04-19T14:26:44;3.22;;;3.10;;
21589;SDS011;10957;50.968;6.828;2023-04-19T14:31:46;3.60;;;3.50;;
21589;SDS011;10957;50.968;6.828;2023-04-19T14:36:47;4.07;;;3.88;;
21589;SDS011;10957;50.968;6.828;2023-04-19T14:41:48;3.83;;;3.63;;
21589;SDS011;10957;50.968;6.828;2023-04-19T14:46:50;3.60;;;3.30;;
21589;SDS011;10957;50.968;6.828;2023-04-19T14:51:52;2.97;;;2.88;;
21589;SDS011;10957;50.968;6.828;2023-04-19T14:56:53;3.65;;;3.45;;
21589;SDS011;10957;50.968;6.828;2023-04-19T15:01:55;3.10;;;3.00;;
21589;SDS011;10957;50.968;6.828;2023-04-19T15:06:56;3.00;;;2.90;;
21589;SDS011;10957;50.968;6.828;2023-04-19T15:11:58;3.58;;;3.38;;
21589;SDS011;10957;50.968;6.828;2023-04-19T15:16:59;3.00;;;2.90;;
21589;SDS011;10957;50.968;6.828;2023-04-19T15:22:01;3.60;;;3.40;;
21589;SDS011;10957;50.968;6.828;2023-04-19T15:27:03;3.30;;;3.20;;
21589;SDS011;10957;50.968;6.828;2023-04-19T15:32:05;3.50;;;3.38;;
21589;SDS011;10957;50.968;6.828;2023-04-19T15:37:06;3.22;;;3.13;;
21589;SDS011;10957;50.968;6.828;2023-04-19T15:42:08;3.10;;;3.00;;
21589;SDS011;10957;50.968;6.828;2023-04-19T15:47:09;3.42;;;3.22;;
21589;SDS011;10957;50.968;6.828;2023-04-19T15:52:11;2.72;;;2.63;;
21589;SDS011;10957;50.968;6.828;2023-04-19T15:57:12;3.50;;;3.28;;
21589;SDS011;10957;50.968;6.828;2023-04-19T16:02:13;2.90;;;2.80;;
21589;SDS011;10957;50.968;6.828;2023-04-19T16:07:15;2.90;;;2.80;;
21589;SDS011;10957;50.968;6.828;2023-04-19T16:12:16;2.97;;;2.80;;
21589;SDS011;10957;50.968;6.828;2023-04-19T16:17:18;2.88;;;2.78;;
21589;SDS011;10957;50.968;6.828;2023-04-19T16:22:19;2.85;;;2.75;;
21589;SDS011;10957;50.968;6.828;2023-04-19T16:27:20;2.97;;;2.88;;
21589;SDS011;10957;50.968;6.828;2023-04-19T16:32:21;3.70;;;3.50;;
21589;SDS011;10957;50.968;6.828;2023-04-19T16:37:23;2.90;;;2.80;;
21589;SDS011;10957;50.968;6.828;2023-04-19T16:42:24;2.50;;;2.40;;
21589;SDS011;10957;50.968;6.828;2023-04-19T16:47:25;2.50;;;2.40;;
21589;SDS011;10957;50.968;6.828;2023-04-19T16:52:27;2.80;;;2.70;;
21589;SDS011;10957;50.968;6.828;2023-04-19T16:57:31;3.35;;;3.15;;
21589;SDS011;10957;50.968;6.828;2023-04-19T17:02:32;2.90;;;2.80;;
21589;SDS011;10957;50.968;6.828;2023-04-19T17:07:33;3.78;;;3.50;;
21589;SDS011;10957;50.968;6.828;2023-04-19T17:12:35;2.72;;;2.63;;
21589;SDS011;10957;50.968;6.828;2023-04-19T17:17:36;3.05;;;2.95;;
21589;SDS011;10957;50.968;6.828;2023-04-19T17:22:37;2.50;;;2.40;;
21589;SDS011;10957;50.968;6.828;2023-04-19T17:27:39;2.80;;;2.70;;
21589;SDS011;10957;50.968;6.828;2023-04-19T17:32:40;2.92;;;2.83;;
21589;SDS011;10957;50.968;6.828;2023-04-19T17:37:42;2.78;;;2.67;;
21589;SDS011;10957;50.968;6.828;2023-04-19T17:42:43;3.50;;;2.88;;
21589;SDS011;10957;50.968;6.828;2023-04-19T17:47:44;2.75;;;2.65;;
21589;SDS011;10957;50.968;6.828;2023-04-19T17:52:46;2.70;;;2.60;;
21589;SDS011;10957;50.968;6.828;2023-04-19T17:57:47;3.00;;;2.90;;
21589;SDS011;10957;50.968;6.828;2023-04-19T18:02:49;2.50;;;2.40;;
21589;SDS011;10957;50.968;6.828;2023-04-19T18:07:50;2.80;;;2.70;;
21589;SDS011;10957;50.968;6.828;2023-04-19T18:12:51;3.78;;;3.58;;
21589;SDS011;10957;50.968;6.828;2023-04-19T18:17:53;2.42;;;2.33;;
21589;SDS011;10957;50.968;6.828;2023-04-19T18:22:54;2.72;;;2.63;;
21589;SDS011;10957;50.968;6.828;2023-04-19T18:27:58;2.80;;;2.70;;
21589;SDS011;10957;50.968;6.828;2023-04-19T18:33:00;2.83;;;2.72;;
21589;SDS011;10957;50.968;6.828;2023-04-19T18:38:01;2.50;;;2.40;;
21589;SDS011;10957;50.968;6.828;2023-04-19T18:43:03;2.80;;;2.70;;
21589;SDS011;10957;50.968;6.828;2023-04-19T18:48:04;2.45;;;2.35;;
21589;SDS011;10957;50.968;6.828;2023-04-19T18:53:06;2.97;;;2.88;;
21589;SDS011;10957;50.968;6.828;2023-04-19T18:58:07;3.08;;;2.97;;
21589;SDS011;10957;50.968;6.828;2023-04-19T19:03:08;2.50;;;2.40;;
21589;SDS011;10957;50.968;6.828;2023-04-19T19:08:09;2.45;;;2.35;;
21589;SDS011;10957;50.968;6.828;2023-04-19T19:13:11;2.72;;;2.60;;
21589;SDS011;10957;50.968;6.828;2023-04-19T19:18:12;2.70;;;2.60;;
21589;SDS011;10957;50.968;6.828;2023-04-19T19:23:13;2.50;;;2.40;;
21589;SDS011;10957;50.968;6.828;2023-04-19T19:28:15;2.60;;;2.50;;
21589;SDS011;10957;50.968;6.828;2023-04-19T19:33:17;2.45;;;2.35;;
21589;SDS011;10957;50.968;6.828;2023-04-19T19:38:18;2.65;;;2.55;;
21589;SDS011;10957;50.968;6.828;2023-04-19T19:43:20;2.70;;;2.60;;
21589;SDS011;10957;50.968;6.828;2023-04-19T19:48:21;3.13;;;2.92;;
21589;SDS011;10957;50.968;6.828;2023-04-19T19:53:22;2.50;;;2.40;;
21589;SDS011;10957;50.968;6.828;2023-04-19T19:58:25;2.40;;;2.30;;
21589;SDS011;10957;50.968;6.828;2023-04-19T20:03:26;2.30;;;2.20;;
21589;SDS011;10957;50.968;6.828;2023-04-19T20:08:28;2.45;;;2.35;;
21589;SDS011;10957;50.968;6.828;2023-04-19T20:13:30;2.40;;;2.30;;
21589;SDS011;10957;50.968;6.828;2023-04-19T20:18:31;2.20;;;2.10;;
21589;SDS011;10957;50.968;6.828;2023-04-19T20:23:36;2.85;;;2.75;;
21589;SDS011;10957;50.968;6.828;2023-04-19T20:28:38;2.20;;;2.10;;
21589;SDS011;10957;50.968;6.828;2023-04-19T20:33:40;2.05;;;1.95;;
21589;SDS011;10957;50.968;6.828;2023-04-19T20:38:41;2.20;;;2.10;;
21589;SDS011;10957;50.968;6.828;2023-04-19T20:43:45;2.38;;;2.28;;
21589;SDS011;10957;50.968;6.828;2023-04-19T20:48:46;2.00;;;1.90;;
21589;SDS011;10957;50.968;6.828;2023-04-19T20:53:48;2.10;;;2.03;;
21589;SDS011;10957;50.968;6.828;2023-04-19T20:58:49;1.98;;;1.88;;
21589;SDS011;10957;50.968;6.828;2023-04-19T21:03:50;2.00;;;1.90;;
21589;SDS011;10957;50.968;6.828;2023-04-19T21:08:51;2.30;;;2.20;;
21589;SDS011;10957;50.968;6.828;2023-04-19T21:13:53;2.40;;;2.30;;
21589;SDS011;10957;50.968;6.828;2023-04-19T21:18:54;1.98;;;1.88;;
21589;SDS011;10957;50.968;6.828;2023-04-19T21:23:55;2.33;;;2.22;;
21589;SDS011;10957;50.968;6.828;2023-04-19T21:28:56;1.80;;;1.80;;
21589;SDS011;10957;50.968;6.828;2023-04-19T21:33:58;2.72;;;2.55;;
21589;SDS011;10957;50.968;6.828;2023-04-19T21:38:59;2.15;;;2.05;;
21589;SDS011;10957;50.968;6.828;2023-04-19T21:44:00;2.10;;;2.00;;
21589;SDS011;10957;50.968;6.828;2023-04-19T21:49:02;2.60;;;2.50;;
21589;SDS011;10957;50.968;6.828;2023-04-19T21:54:03;1.90;;;1.80;;
21589;SDS011;10957;50.968;6.828;2023-04-19T21:59:04;2.00;;;1.90;;
21589;SDS011;10957;50.968;6.828;2023-04-19T22:04:05;1.80;;;1.80;;
21589;SDS011;10957;50.968;6.828;2023-04-19T22:09:07;1.85;;;1.80;;
21589;SDS011;10957;50.968;6.828;2023-04-19T22:14:09;2.42;;;2.33;;
21589;SDS011;10957;50.968;6.828;2023-04-19T22:19:10;2.08;;;1.98;;
21589;SDS011;10957;50.968;6.828;2023-04-19T22:24:12;2.08;;;1.98;;
21589;SDS011;10957;50.968;6.828;2023-04-19T22:29:13;1.85;;;1.83;;
21589;SDS011;10957;50.968;6.828;2023-04-19T22:34:15;1.95;;;1.88;;
21589;SDS011;10957;50.968;6.828;2023-04-19T22:39:16;1.70;;;1.70;;
21589;SDS011;10957;50.968;6.828;2023-04-19T22:44:17;2.45;;;1.95;;
21589;SDS011;10957;50.968;6.828;2023-04-19T22:49:19;2.00;;;1.90;;
21589;SDS011;10957;50.968;6.828;2023-04-19T22:54:22;2.17;;;2.08;;
21589;SDS011;10957;50.968;6.828;2023-04-19T22:59:23;2.00;;;1.90;;
21589;SDS011;10957;50.968;6.828;2023-04-19T23:04:24;1.80;;;1.80;;
21589;SDS011;10957;50.968;6.828;2023-04-19T23:09:25;2.53;;;2.42;;
21589;SDS011;10957;50.968;6.828;2023-04-19T23:14:29;1.80;;;1.80;;
21589;SDS011;10957;50.968;6.828;2023-04-19T23:19:31;1.70;;;1.70;;
21589;SDS011;10957;50.968;6.828;2023-04-19T23:24:32;1.70;;;1.70;;
21589;SDS011;10957;50.968;6.828;2023-04-19T23:29:35;2.08;;;1.98;;
21589;SDS011;10957;50.968;6.828;2023-04-19T23:34:36;2.28;;;2.17;;
21589;SDS011;10957;50.968;6.828;2023-04-19T23:39:38;1.80;;;1.80;;
21589;SDS011;10957;50.968;6.828;2023-04-19T23:44:39;1.70;;;1.70;;
21589;SDS011;10957;50.968;6.828;2023-04-19T23:49:41;1.83;;;1.75;;
21589;SDS011;10957;50.968;6.828;2023-04-19T23:54:42;2.40;;;2.20;;
21589;SDS011;10957;50.968;6.828;2023-04-19T23:59:43;1.73;;;1.73;;
